Currently 68°F in Anza, California, USA
68°F
68°F / 61°F
calm
0.00"
Thursday, July 16, 2020 6:58 AM PDT

Anza, California Weather Summary
Last 36 Hours

Temperature Winds Hourly Humidity Dewpoint
Time Report Norm Report Norm Max Gusts Precip. Rpt. Norm Rpt. Norm Pressure
1,2Thu 06:58 AM  68.4°F  69°F  calm  4 mph  none  0.00"  45%  55%  45°F  51°F  N/A
3Thu 06:04 AM  60.8°F  64°F  calm  3 mph  none  ----  52%  59%  43°F  49°F  N/A
Thu 06:00 AM  61.0°F  64°F  calm  4 mph  none  0.00"  53%  60%  43°F  50°F  N/A
Thu 05:00 AM  63.6°F  64°F  calm  4 mph  none  0.00"  49%  61%  43°F  50°F  N/A
Thu 04:00 AM  61.6°F  65°F  calm  4 mph  none  0.00"  59%  61%  46°F  51°F  N/A
Thu 03:00 AM  64.6°F  66°F  calm  4 mph  none  0.00"  63%  61%  51°F  52°F  N/A
Thu 02:00 AM  62.9°F  66°F  calm  4 mph  none  0.00"  59%  62%  48°F  52°F  N/A
Thu 01:00 AM  63.6°F  66°F  calm  4 mph  none  0.00"  58%  61%  48°F  52°F  N/A
Thu 12:00 AM  63.1°F  67°F  calm  5 mph  none  0.00"  59%  61%  48°F  52°F  N/A
Wed 11:00 PM  62.7°F  68°F  calm  5 mph  none  0.00"  63%  59%  49°F  53°F  N/A
Wed 10:00 PM  64.8°F  70°F  calm  5 mph  none  0.00"  58%  56%  49°F  53°F  N/A
Wed 09:00 PM  67.7°F  72°F  calm  6 mph  none  0.00"  54%  51%  50°F  53°F  N/A
Wed 08:00 PM  71.9°F  76°F  calm  7 mph  none  0.00"  48%  46%  50°F  53°F  N/A
Wed 07:00 PM  78.6°F  81°F  calm  9 mph  13 mph  0.00"  43%  39%  53°F  53°F  N/A
Wed 06:00 PM  81.6°F  85°F  calm  11 mph  14 mph  0.00"  38%  35%  53°F  53°F  N/A
Wed 05:00 PM  85.3°F  87°F  calm  11 mph  15 mph  0.00"  35%  31%  54°F  52°F  N/A
Wed 04:00 PM  88.2°F  88°F  10 mph W  10 mph  14 mph  0.00"  25%  30%  47°F  52°F  N/A
Wed 03:00 PM  88.8°F  89°F  calm  9 mph  14 mph  0.00"  21%  29%  42°F  51°F  N/A
Wed 02:00 PM  88.8°F  89°F  calm  9 mph  14 mph  0.00"  19%  29%  40°F  51°F  N/A
Wed 01:00 PM  89.2°F  89°F  calm  9 mph  none  0.00"  20%  28%  41°F  50°F  N/A
Wed 12:00 PM  87.3°F  88°F  calm  8 mph  none  0.00"  19%  29%  38°F  50°F  N/A
Wed 11:00 AM  84.9°F  86°F  calm  8 mph  14 mph  0.00"  18%  30%  36°F  49°F  N/A
Wed 10:00 AM  82.5°F  84°F  calm  7 mph  none  0.00"  19%  31%  35°F  49°F  N/A
Wed 09:00 AM  79.0°F  81°F  calm  6 mph  none  0.00"  19%  35%  32°F  50°F  N/A
Wed 08:00 AM  73.5°F  76°F  calm  5 mph  none  0.00"  15%  43%  21°F  51°F  N/A
Wed 07:00 AM  67.3°F  69°F  calm  4 mph  none  0.00"  21%  55%  24°F  51°F  N/A
Wed 06:00 AM  60.2°F  64°F  calm  4 mph  none  0.00"  26%  60%  24°F  50°F  N/A
Wed 05:00 AM  60.6°F  65°F  calm  4 mph  none  0.00"  31%  61%  28°F  50°F  N/A
Wed 04:00 AM  59.5°F  65°F  calm  4 mph  none  0.00"  41%  61%  35°F  51°F  N/A
Wed 03:00 AM  60.1°F  66°F  calm  4 mph  none  0.00"  48%  61%  40°F  51°F  N/A
Wed 02:00 AM  59.9°F  66°F  calm  4 mph  none  0.00"  52%  61%  41°F  52°F  N/A
Wed 01:00 AM  59.6°F  66°F  calm  5 mph  none  0.00"  62%  61%  46°F  52°F  N/A
Wed 12:00 AM  60.9°F  67°F  calm  5 mph  none  0.00"  64%  60%  48°F  52°F  N/A
Tue 11:00 PM  63.2°F  68°F  calm  5 mph  none  0.00"  65%  58%  51°F  52°F  N/A
Tue 10:00 PM  65.8°F  70°F  calm  5 mph  18 mph  0.00"  62%  54%  52°F  52°F  N/A
Tue 09:00 PM  68.8°F  72°F  9 mph NW  6 mph  13 mph  0.00"  56%  50%  52°F  52°F  N/A
Tue 08:00 PM  72.5°F  76°F  calm  7 mph  15 mph  0.00"  51%  45%  52°F  52°F  N/A
Tue 07:00 PM  78.1°F  81°F  calm  9 mph  15 mph  0.00"  42%  38%  52°F  52°F  N/A

  1. Current weather data. No green row appears if the current weather data is also the high or low for the current day.
  2. High temperature for the current day.
  3. Low temperature for the current day.

The Anza, California weather pages are a service of WeatherCurrents. The Anza Valley is southwestern Riverside County, east of Temecula and Aguanga, south of Mount San Jacinto and west of Mount Santa Rosa.
Copyright ©2020  WeatherCurrents. All rights reserved. - Submit questions and comments - Privacy Policy

This page automatically refreshes every 10 minutes.